createdAt,value
2023-03-16T00:00:19.849Z,101597.53
2023-03-16T00:02:47.162Z,101598.47
2023-03-16T00:05:14.816Z,101599.34
2023-03-16T00:07:43.178Z,101594.22
2023-03-16T00:10:12.521Z,101590.78
2023-03-16T00:12:43.581Z,101593.47
2023-03-16T00:15:12.322Z,101589.09
2023-03-16T00:17:39.720Z,101582.97
2023-03-16T00:20:08.142Z,101582.19
2023-03-16T00:22:35.506Z,101579.59
2023-03-16T00:25:03.308Z,101586.53
2023-03-16T00:27:30.803Z,101576.09
2023-03-16T00:29:57.918Z,101576.16
2023-03-16T00:32:32.361Z,101574.41
2023-03-16T00:35:02.265Z,101569.19
2023-03-16T00:37:30.585Z,101566.66
2023-03-16T00:39:58.493Z,101565.81
2023-03-16T00:42:30.069Z,101558.03
2023-03-16T00:44:58.866Z,101565.03
2023-03-16T00:47:35.109Z,101558.09
2023-03-16T00:50:03.276Z,101557.22
2023-03-16T00:52:30.826Z,101556.38
2023-03-16T00:54:58.160Z,101551.16
2023-03-16T00:57:27.794Z,101547.72
2023-03-16T00:59:54.900Z,101544.31
2023-03-16T01:02:25.589Z,101542.53
2023-03-16T01:04:55.000Z,101544.31
2023-03-16T01:07:22.914Z,101533.88
2023-03-16T01:09:50.198Z,101535.56
2023-03-16T01:12:19.368Z,101526.84
2023-03-16T01:14:47.878Z,101525.06
2023-03-16T01:17:17.507Z,101516.28
2023-03-16T01:19:45.881Z,101526.78
2023-03-16T01:22:13.739Z,101527.78
2023-03-16T01:24:42.840Z,101513.09
2023-03-16T01:27:10.004Z,101511.41
2023-03-16T01:29:38.083Z,101500.97
2023-03-16T01:32:06.433Z,101505.25
2023-03-16T01:34:35.128Z,101491.28
2023-03-16T01:37:03.053Z,101487.84
2023-03-16T01:39:30.722Z,101490.44
2023-03-16T01:41:57.949Z,101480.03
2023-03-16T01:44:35.203Z,101480.91
2023-03-16T01:47:02.597Z,101484.38
2023-03-16T01:49:36.718Z,101489.63
2023-03-16T01:52:12.704Z,101482.69
2023-03-16T01:54:54.473Z,101487.97
2023-03-16T01:57:31.166Z,101478.44
2023-03-16T02:00:24.086Z,101480.28
2023-03-16T02:02:58.464Z,101482.88
2023-03-16T02:05:48.924Z,101482.09
2023-03-16T02:08:18.011Z,101471.72
2023-03-16T02:10:45.801Z,101482.25
2023-03-16T02:13:14.679Z,101476.22
2023-03-16T02:15:42.060Z,101465.78
2023-03-16T02:18:09.668Z,101471.09
2023-03-16T02:20:52.080Z,101474.56
2023-03-16T02:23:23.193Z,101463.19
2023-03-16T02:26:23.177Z,101461.38
2023-03-16T02:29:11.555Z,101459.56
2023-03-16T02:31:39.494Z,101451.59
2023-03-16T02:34:08.350Z,101455.13
2023-03-16T02:36:37.985Z,101460.28
2023-03-16T02:39:05.973Z,101463.84
2023-03-16T02:41:33.292Z,101461.22
2023-03-16T02:44:28.231Z,101454.22
2023-03-16T02:47:00.203Z,101451.53
2023-03-16T02:49:38.964Z,101448.91
2023-03-16T02:52:07.920Z,101444.53
2023-03-16T02:54:35.237Z,101447.16
2023-03-16T02:57:02.648Z,101451.53
2023-03-16T02:59:30.229Z,101446.31
2023-03-16T03:01:57.778Z,101442.81
2023-03-16T03:04:25.154Z,101439.41
2023-03-16T03:06:52.670Z,101439.31
2023-03-16T03:09:20.961Z,101434.09
2023-03-16T03:11:48.220Z,101432.34
2023-03-16T03:14:16.923Z,101427.97
2023-03-16T03:16:47.652Z,101430.56
2023-03-16T03:19:14.917Z,101434.09
2023-03-16T03:21:42.330Z,101427.13
2023-03-16T03:24:10.194Z,101430.56
2023-03-16T03:26:38.645Z,101427.91
2023-03-16T03:29:05.994Z,101418.28
2023-03-16T03:31:33.464Z,101424.34
2023-03-16T03:34:06.455Z,101426.09
2023-03-16T03:36:34.987Z,101428.78
2023-03-16T03:39:05.156Z,101429.69
2023-03-16T03:41:33.867Z,101422.72
2023-03-16T03:44:01.356Z,101428.00
2023-03-16T03:46:28.624Z,101422.78
2023-03-16T03:48:58.369Z,101421.97
2023-03-16T03:51:25.745Z,101427.31
2023-03-16T03:53:52.796Z,101422.03
2023-03-16T03:56:19.961Z,101425.59
2023-03-16T03:58:47.057Z,101423.03
2023-03-16T04:01:14.190Z,101419.56
2023-03-16T04:03:42.894Z,101405.69
2023-03-16T04:06:11.825Z,101403.13
2023-03-16T04:08:39.114Z,101399.63
2023-03-16T04:11:06.286Z,101396.09
2023-03-16T04:13:33.645Z,101395.19
2023-03-16T04:16:05.048Z,101384.75
2023-03-16T04:18:38.665Z,101386.53
2023-03-16T04:21:07.244Z,101390.06
2023-03-16T04:23:34.962Z,101389.28
2023-03-16T04:26:02.613Z,101390.09
2023-03-16T04:28:29.944Z,101387.56
2023-03-16T04:31:07.286Z,101384.06
2023-03-16T04:33:36.291Z,101378.84
2023-03-16T04:36:05.347Z,101385.84
2023-03-16T04:38:34.106Z,101386.84
2023-03-16T04:41:06.815Z,101383.38
2023-03-16T04:43:37.068Z,101385.16
2023-03-16T04:46:06.693Z,101380.94
2023-03-16T04:48:34.031Z,101384.47
2023-03-16T04:51:04.233Z,101380.13
2023-03-16T04:53:32.118Z,101377.56
2023-03-16T04:55:59.565Z,101377.56
2023-03-16T04:58:27.168Z,101382.81
2023-03-16T05:00:56.120Z,101376.78
2023-03-16T05:03:23.825Z,101378.59
2023-03-16T05:05:51.469Z,101377.75
2023-03-16T05:08:18.694Z,101369.88
2023-03-16T05:10:48.272Z,101369.91
2023-03-16T05:13:15.501Z,101365.53
2023-03-16T05:15:42.685Z,101358.53
2023-03-16T05:18:10.052Z,101362.91
2023-03-16T05:20:37.167Z,101362.06
2023-03-16T05:23:04.342Z,101366.44
2023-03-16T05:25:31.521Z,101356.06
2023-03-16T05:27:58.830Z,101360.38
2023-03-16T05:30:26.813Z,101351.63
2023-03-16T05:32:55.088Z,101355.28
2023-03-16T05:35:24.192Z,101350.06
2023-03-16T05:37:51.635Z,101351.81
2023-03-16T05:40:19.231Z,101344.88
2023-03-16T05:42:55.917Z,101343.16
2023-03-16T05:45:23.669Z,101347.53
2023-03-16T05:47:51.020Z,101347.56
2023-03-16T05:50:18.447Z,101341.50
2023-03-16T05:52:46.391Z,101331.94
2023-03-16T05:55:18.798Z,101334.50
2023-03-16T05:57:45.932Z,101332.88
2023-03-16T06:00:16.024Z,101332.88
2023-03-16T06:02:46.965Z,101332.88
2023-03-16T06:05:14.772Z,101335.50
2023-03-16T06:07:42.812Z,101335.50
2023-03-16T06:10:11.994Z,101342.53
2023-03-16T06:12:39.390Z,101338.19
2023-03-16T06:15:08.714Z,101340.91
2023-03-16T06:17:37.256Z,101341.88
2023-03-16T06:20:11.150Z,101343.69
2023-03-16T06:22:39.982Z,101343.84
2023-03-16T06:25:10.002Z,101341.28
2023-03-16T06:27:37.850Z,101338.72
2023-03-16T06:30:07.308Z,101342.31
2023-03-16T06:32:35.862Z,101329.28
2023-03-16T06:35:04.432Z,101329.31
2023-03-16T06:37:32.247Z,101332.09
2023-03-16T06:39:59.724Z,101324.34
2023-03-16T06:42:27.147Z,101320.13
2023-03-16T06:44:54.904Z,101328.03
2023-03-16T06:47:22.333Z,101324.72
2023-03-16T06:49:51.809Z,101325.66
2023-03-16T06:52:19.185Z,101324.88
2023-03-16T06:54:46.444Z,101322.34
2023-03-16T06:57:14.251Z,101321.47
2023-03-16T06:59:41.306Z,101335.50
2023-03-16T07:02:14.627Z,101330.38
2023-03-16T07:04:42.314Z,101320.88
2023-03-16T07:07:10.280Z,101321.91
2023-03-16T07:09:40.350Z,101320.28
2023-03-16T07:12:09.662Z,101336.19
2023-03-16T07:14:37.128Z,101321.59
2023-03-16T07:17:04.515Z,101323.53
2023-03-16T07:19:32.279Z,101306.28
2023-03-16T07:21:59.765Z,101304.66
2023-03-16T07:24:27.559Z,101311.72
2023-03-16T07:26:55.137Z,101311.81
2023-03-16T07:29:22.562Z,101304.09
2023-03-16T07:31:50.007Z,101307.81
2023-03-16T07:34:18.440Z,101304.44
2023-03-16T07:36:45.683Z,101311.59
2023-03-16T07:39:14.395Z,101302.91
2023-03-16T07:41:41.826Z,101310.88
2023-03-16T07:44:08.866Z,101317.09
2023-03-16T07:46:35.943Z,101318.06
2023-03-16T07:49:03.165Z,101315.53
2023-03-16T07:51:31.303Z,101317.34
2023-03-16T07:53:58.619Z,101310.41
2023-03-16T07:56:28.310Z,101312.38
2023-03-16T07:58:56.998Z,101323.28
2023-03-16T08:01:24.355Z,101328.88
2023-03-16T08:03:51.382Z,101322.22
2023-03-16T08:06:18.473Z,101329.34
2023-03-16T08:08:46.136Z,101315.44
2023-03-16T08:11:14.251Z,101319.00
2023-03-16T08:13:44.011Z,101315.66
2023-03-16T08:16:13.561Z,101328.16
2023-03-16T08:18:41.808Z,101315.19
2023-03-16T08:21:09.074Z,101317.16
2023-03-16T08:23:36.449Z,101330.44
2023-03-16T08:26:08.809Z,101330.75
2023-03-16T08:28:36.843Z,101333.63
2023-03-16T08:31:08.792Z,101336.53
2023-03-16T08:33:36.145Z,101337.53
2023-03-16T08:36:07.498Z,101338.44
2023-03-16T08:38:35.335Z,101331.44
2023-03-16T08:41:02.821Z,101338.47
2023-03-16T08:43:30.278Z,101335.03
2023-03-16T08:45:57.662Z,101331.53
2023-03-16T08:48:26.570Z,101332.44
2023-03-16T08:50:54.471Z,101325.38
2023-03-16T08:53:21.931Z,101330.47
2023-03-16T08:55:49.030Z,101328.66
2023-03-16T08:58:16.158Z,101321.72
2023-03-16T09:00:46.470Z,101321.81
2023-03-16T09:03:14.099Z,101322.84
2023-03-16T09:05:42.426Z,101323.88
2023-03-16T09:08:09.789Z,101316.97
2023-03-16T09:10:38.164Z,101316.25
2023-03-16T09:13:05.159Z,101316.41
2023-03-16T09:15:32.626Z,101317.38
2023-03-16T09:18:00.928Z,101309.53
2023-03-16T09:20:29.999Z,101310.47
2023-03-16T09:22:59.114Z,101310.59
2023-03-16T09:25:26.527Z,101316.84
2023-03-16T09:27:54.171Z,101317.00
2023-03-16T09:30:21.479Z,101312.75
2023-03-16T09:32:49.103Z,101312.78
2023-03-16T09:35:16.838Z,101303.16
2023-03-16T09:38:01.038Z,101308.41
2023-03-16T09:40:31.992Z,101304.00
2023-03-16T09:43:24.972Z,101308.41
2023-03-16T09:46:16.451Z,101309.28
2023-03-16T09:48:43.889Z,101312.78
2023-03-16T09:51:37.653Z,101310.16
2023-03-16T09:54:34.290Z,101298.75
2023-03-16T09:57:01.967Z,101293.50
2023-03-16T09:59:28.977Z,101297.00
2023-03-16T10:02:25.586Z,101293.50
2023-03-16T10:04:58.630Z,101287.34
2023-03-16T10:07:58.889Z,101284.72
2023-03-16T10:11:03.862Z,101282.94
2023-03-16T10:13:48.800Z,101282.06
2023-03-16T10:16:41.788Z,101279.41
2023-03-16T10:19:19.560Z,101275.91
2023-03-16T10:21:49.124Z,101262.72
2023-03-16T10:24:48.684Z,101261.84
2023-03-16T10:27:23.290Z,101255.69
2023-03-16T10:29:50.678Z,101267.09
2023-03-16T10:32:19.783Z,101248.63
2023-03-16T10:35:20.835Z,101261.78
2023-03-16T10:37:49.184Z,101247.63
2023-03-16T10:40:20.518Z,101254.69
2023-03-16T10:42:48.080Z,101256.41
2023-03-16T10:45:32.220Z,101252.84
2023-03-16T10:48:14.576Z,101249.28
2023-03-16T10:50:44.650Z,101259.91
2023-03-16T10:53:34.809Z,101253.66
2023-03-16T10:56:20.709Z,101250.06
2023-03-16T10:58:47.767Z,101249.03
2023-03-16T11:01:24.585Z,101241.78
2023-03-16T11:03:55.553Z,101235.38
2023-03-16T11:06:30.911Z,101232.53
2023-03-16T11:09:12.819Z,101225.28
2023-03-16T11:11:46.697Z,101228.63
2023-03-16T11:14:15.642Z,101217.03
2023-03-16T11:17:11.065Z,101216.72
2023-03-16T11:19:42.726Z,101208.53
2023-03-16T11:22:18.950Z,101203.91
2023-03-16T11:25:01.002Z,101201.94
2023-03-16T11:27:54.228Z,101197.44
2023-03-16T11:30:29.516Z,101196.47
2023-03-16T11:33:00.289Z,101191.16
2023-03-16T11:35:38.544Z,101186.69
2023-03-16T11:38:34.598Z,101188.38
2023-03-16T11:41:21.571Z,101178.66
2023-03-16T11:43:57.109Z,101172.44
2023-03-16T11:46:47.197Z,101182.09
2023-03-16T11:50:00.231Z,101179.28
2023-03-16T11:53:19.240Z,101166.78
2023-03-16T11:56:08.061Z,101166.78
2023-03-16T11:58:53.737Z,101166.84
2023-03-16T12:02:00.207Z,101153.78
2023-03-16T12:04:47.736Z,101148.50
2023-03-16T12:07:58.145Z,101133.41
2023-03-16T12:11:06.777Z,101137.94
2023-03-16T12:14:10.918Z,101130.25
2023-03-16T12:17:13.562Z,101141.31
2023-03-16T12:20:16.177Z,101146.94
2023-03-16T12:23:14.958Z,101140.16
2023-03-16T12:25:47.768Z,101127.06
2023-03-16T12:28:26.724Z,101139.50
2023-03-16T12:31:20.018Z,101137.75
2023-03-16T12:34:18.628Z,101119.22
2023-03-16T12:37:00.957Z,101122.72
2023-03-16T12:39:48.853Z,101106.91
2023-03-16T12:42:32.806Z,101097.25
2023-03-16T12:45:08.209Z,101091.91
2023-03-16T12:47:59.635Z,101083.97
2023-03-16T12:50:27.507Z,101076.00
2023-03-16T12:52:54.756Z,101065.38
2023-03-16T12:55:46.824Z,101059.19
2023-03-16T12:58:18.497Z,101065.38
2023-03-16T13:00:59.569Z,101069.81
2023-03-16T13:03:28.603Z,101048.63
2023-03-16T13:05:59.745Z,101060.94
2023-03-16T13:08:30.711Z,101052.06
2023-03-16T13:11:00.684Z,101039.66
2023-03-16T13:13:28.837Z,101049.34
2023-03-16T13:16:09.457Z,101050.16
2023-03-16T13:18:45.293Z,101047.47
2023-03-16T13:21:35.869Z,101035.03
2023-03-16T13:24:35.243Z,101026.13
2023-03-16T13:27:18.143Z,101021.66
2023-03-16T13:30:02.221Z,101022.44
2023-03-16T13:32:33.902Z,101015.28
2023-03-16T13:35:05.497Z,101012.56
2023-03-16T13:37:33.166Z,101013.44
2023-03-16T13:40:04.460Z,101006.38
2023-03-16T13:42:33.712Z,100994.81
2023-03-16T13:45:15.396Z,100996.56
2023-03-16T13:47:45.320Z,101000.06
2023-03-16T13:50:14.536Z,100995.59
2023-03-16T13:52:44.190Z,100982.25
2023-03-16T13:55:18.504Z,100974.16
2023-03-16T13:57:48.428Z,100974.84
2023-03-16T14:00:27.914Z,100973.78
2023-03-16T14:02:58.996Z,100966.69
2023-03-16T14:05:35.348Z,100963.94
2023-03-16T14:08:05.075Z,100960.28
2023-03-16T14:10:36.802Z,100959.31
2023-03-16T14:13:34.361Z,100955.78
2023-03-16T14:16:16.984Z,100958.44
2023-03-16T14:18:53.784Z,100956.69
2023-03-16T14:21:27.922Z,100955.06
2023-03-16T14:24:06.790Z,100949.00
2023-03-16T14:26:43.666Z,100934.94
2023-03-16T14:29:31.630Z,100931.38
2023-03-16T14:32:03.847Z,100920.78
2023-03-16T14:34:36.363Z,100914.66
2023-03-16T14:37:09.962Z,100918.25
2023-03-16T14:39:38.372Z,100918.31
2023-03-16T14:42:13.889Z,100924.53
2023-03-16T14:44:41.420Z,100921.88
2023-03-16T14:47:15.676Z,100926.28
2023-03-16T14:49:43.562Z,100913.00
2023-03-16T14:52:31.884Z,100920.09
2023-03-16T14:55:02.315Z,100905.06
2023-03-16T14:57:30.726Z,100907.69
2023-03-16T14:59:57.983Z,100898.03
2023-03-16T15:02:30.871Z,100896.38
2023-03-16T15:05:00.249Z,100898.19
2023-03-16T15:07:34.527Z,100889.41
2023-03-16T15:10:20.133Z,100886.75
2023-03-16T15:12:53.999Z,100886.72
2023-03-16T15:15:24.071Z,100886.66
2023-03-16T15:17:52.837Z,100885.69
2023-03-16T15:20:25.660Z,100887.44
2023-03-16T15:22:53.720Z,100877.63
2023-03-16T15:25:28.538Z,100875.81
2023-03-16T15:27:55.997Z,100871.25
2023-03-16T15:30:29.119Z,100876.38
2023-03-16T15:32:56.721Z,100861.28
2023-03-16T15:35:24.158Z,100863.91
2023-03-16T15:37:51.875Z,100856.88
2023-03-16T15:40:26.970Z,100857.91
2023-03-16T15:42:54.644Z,100854.47
2023-03-16T15:45:23.473Z,100850.16
2023-03-16T15:47:53.830Z,100850.22
2023-03-16T15:50:24.814Z,100849.34
2023-03-16T15:53:05.538Z,100851.09
2023-03-16T15:55:42.082Z,100847.53
2023-03-16T15:58:27.662Z,100845.69
2023-03-16T16:00:57.890Z,100833.31
2023-03-16T16:03:27.511Z,100836.94
2023-03-16T16:05:55.752Z,100831.78
2023-03-16T16:08:23.439Z,100832.81
2023-03-16T16:10:53.264Z,100826.81
2023-03-16T16:13:37.348Z,100826.09
2023-03-16T16:16:14.769Z,100828.84
2023-03-16T16:18:42.419Z,100821.03
2023-03-16T16:21:25.094Z,100817.50
2023-03-16T16:23:53.102Z,100815.81
2023-03-16T16:26:55.618Z,100831.75
2023-03-16T16:29:27.778Z,100819.28
2023-03-16T16:31:55.661Z,100823.44
2023-03-16T16:34:25.002Z,100816.19
2023-03-16T16:36:54.015Z,100820.50
2023-03-16T16:39:21.930Z,100815.13
2023-03-16T16:41:51.907Z,100814.22
2023-03-16T16:44:27.361Z,100811.63
2023-03-16T16:46:55.584Z,100816.25
2023-03-16T16:49:26.192Z,100808.47
2023-03-16T16:51:54.495Z,100811.31
2023-03-16T16:54:25.651Z,100808.91
2023-03-16T16:56:55.039Z,100811.75
2023-03-16T16:59:29.038Z,100816.41
2023-03-16T17:01:57.470Z,100810.50
2023-03-16T17:04:28.273Z,100817.78
2023-03-16T17:07:00.841Z,100825.88
2023-03-16T17:09:30.329Z,100822.50
2023-03-16T17:12:02.137Z,100816.53
2023-03-16T17:14:31.157Z,100817.63
2023-03-16T17:17:05.021Z,100808.97
2023-03-16T17:19:32.830Z,100811.72
2023-03-16T17:22:00.060Z,100809.22
2023-03-16T17:24:28.749Z,100814.63
2023-03-16T17:27:00.576Z,100817.41
2023-03-16T17:29:33.967Z,100815.78
2023-03-16T17:32:12.340Z,100816.78
2023-03-16T17:34:39.605Z,100810.69
2023-03-16T17:37:19.727Z,100806.41
2023-03-16T17:39:46.891Z,100808.31
2023-03-16T17:42:18.995Z,100798.75
2023-03-16T17:44:51.927Z,100798.84
2023-03-16T17:47:26.495Z,100806.84
2023-03-16T17:49:54.658Z,100809.50
2023-03-16T17:52:26.002Z,100811.31
2023-03-16T17:54:54.296Z,100806.13
2023-03-16T17:57:33.710Z,100811.44
2023-03-16T18:00:02.297Z,100804.47
2023-03-16T18:03:02.462Z,100801.00
2023-03-16T18:05:34.976Z,100792.31
2023-03-16T18:08:29.533Z,100787.13
2023-03-16T18:11:07.980Z,100792.47
2023-03-16T18:13:39.429Z,100788.13
2023-03-16T18:16:07.901Z,100796.94
2023-03-16T18:18:42.043Z,100807.50
2023-03-16T18:21:28.556Z,100802.28
2023-03-16T18:23:57.286Z,100790.91
2023-03-16T18:26:24.654Z,100789.16
2023-03-16T18:28:53.550Z,100793.56
2023-03-16T18:31:26.328Z,100804.09
2023-03-16T18:34:03.698Z,100804.13
2023-03-16T18:36:37.740Z,100808.53
2023-03-16T18:39:07.705Z,100805.88
2023-03-16T18:41:36.253Z,100810.28
2023-03-16T18:44:13.709Z,100819.06
2023-03-16T18:46:40.905Z,100822.59
2023-03-16T18:49:36.144Z,100819.97
2023-03-16T18:52:04.504Z,100816.47
2023-03-16T18:54:38.363Z,100810.34
2023-03-16T18:57:16.779Z,100810.34
2023-03-16T18:59:44.265Z,100810.34
2023-03-16T19:02:29.989Z,100807.75
2023-03-16T19:05:00.565Z,100805.97
2023-03-16T19:07:41.149Z,100796.34
2023-03-16T19:10:35.488Z,100783.19
2023-03-16T19:13:03.336Z,100786.69
2023-03-16T19:15:35.800Z,100779.66
2023-03-16T19:18:03.163Z,100770.03
2023-03-16T19:20:33.588Z,100775.31
2023-03-16T19:23:12.125Z,100769.13
2023-03-16T19:25:42.543Z,100758.63
2023-03-16T19:28:20.432Z,100755.97
2023-03-16T19:30:48.983Z,100760.38
2023-03-16T19:33:28.519Z,100763.00
2023-03-16T19:35:57.069Z,100764.75
2023-03-16T19:38:26.571Z,100757.75
2023-03-16T19:40:59.363Z,100753.34
2023-03-16T19:43:28.436Z,100753.34
2023-03-16T19:45:56.746Z,100745.47
2023-03-16T19:48:34.758Z,100740.22
2023-03-16T19:51:02.295Z,100738.44
2023-03-16T19:53:30.677Z,100740.19
2023-03-16T19:55:58.142Z,100741.97
2023-03-16T19:58:38.647Z,100735.81
2023-03-16T20:01:19.250Z,100741.97
2023-03-16T20:03:48.572Z,100737.56
2023-03-16T20:06:19.284Z,100743.69
2023-03-16T20:08:48.111Z,100744.56
2023-03-16T20:11:30.849Z,100730.53
2023-03-16T20:13:59.604Z,100723.53
2023-03-16T20:16:33.756Z,100720.91
2023-03-16T20:19:05.310Z,100704.28
2023-03-16T20:21:32.847Z,100714.78
2023-03-16T20:24:00.324Z,100706.03
2023-03-16T20:26:33.303Z,100708.63
2023-03-16T20:29:01.587Z,100701.63
2023-03-16T20:31:34.230Z,100704.25
2023-03-16T20:34:01.631Z,100699.84
2023-03-16T20:36:29.463Z,100689.34
2023-03-16T20:38:56.526Z,100699.88
2023-03-16T20:41:32.842Z,100680.59
2023-03-16T20:44:04.346Z,100682.38
2023-03-16T20:46:33.446Z,100671.81
2023-03-16T20:49:01.081Z,100671.81
2023-03-16T20:51:28.984Z,100679.72
2023-03-16T20:53:56.554Z,100677.09
2023-03-16T20:56:26.663Z,100677.06
2023-03-16T20:58:56.337Z,100669.19
2023-03-16T21:01:24.500Z,100668.28
2023-03-16T21:04:00.106Z,100667.41
2023-03-16T21:06:31.881Z,100672.66
2023-03-16T21:09:02.750Z,100668.28
2023-03-16T21:11:37.007Z,100677.91
2023-03-16T21:14:07.176Z,100672.63
2023-03-16T21:16:34.803Z,100665.63
2023-03-16T21:19:02.046Z,100661.25
2023-03-16T21:21:29.115Z,100668.25
2023-03-16T21:23:56.558Z,100658.59
2023-03-16T21:26:27.976Z,100657.72
2023-03-16T21:28:59.547Z,100665.59
2023-03-16T21:31:27.286Z,100657.72
2023-03-16T21:33:55.793Z,100653.34
2023-03-16T21:36:28.491Z,100647.22
2023-03-16T21:38:57.331Z,100656.84
2023-03-16T21:41:24.732Z,100666.47
2023-03-16T21:43:52.352Z,100664.72
2023-03-16T21:46:23.095Z,100663.84
2023-03-16T21:48:54.848Z,100662.97
2023-03-16T21:51:28.974Z,100665.63
2023-03-16T21:53:56.476Z,100669.13
2023-03-16T21:56:26.144Z,100652.50
2023-03-16T21:58:54.824Z,100657.75
2023-03-16T22:01:30.596Z,100659.47
2023-03-16T22:04:14.121Z,100641.09
2023-03-16T22:06:44.021Z,100626.22
2023-03-16T22:09:20.339Z,100626.22
2023-03-16T22:11:47.736Z,100627.97
2023-03-16T22:14:14.731Z,100633.22
2023-03-16T22:16:42.558Z,100632.31
2023-03-16T22:19:14.755Z,100619.19
2023-03-16T22:21:44.814Z,100625.31
2023-03-16T22:24:22.166Z,100634.06
2023-03-16T22:26:50.796Z,100631.44
2023-03-16T22:29:31.693Z,100640.19
2023-03-16T22:32:07.617Z,100655.94
2023-03-16T22:34:42.984Z,100658.59
2023-03-16T22:37:16.875Z,100649.81
2023-03-16T22:39:45.229Z,100659.47
2023-03-16T22:42:33.155Z,100647.22
2023-03-16T22:45:03.561Z,100646.34
2023-03-16T22:47:36.859Z,100643.69
2023-03-16T22:50:04.546Z,100637.56
2023-03-16T22:52:37.056Z,100632.31
2023-03-16T22:55:06.157Z,100627.06
2023-03-16T22:57:33.670Z,100627.94
2023-03-16T23:00:11.182Z,100632.28
2023-03-16T23:02:38.785Z,100627.03
2023-03-16T23:05:25.255Z,100620.06
2023-03-16T23:07:53.068Z,100614.78
2023-03-16T23:10:24.189Z,100612.16
2023-03-16T23:12:53.549Z,100617.41
2023-03-16T23:15:25.881Z,100613.03
2023-03-16T23:17:53.451Z,100609.50
2023-03-16T23:20:31.851Z,100610.38
2023-03-16T23:22:59.942Z,100612.13
2023-03-16T23:25:27.041Z,100607.72
2023-03-16T23:27:54.303Z,100612.09
2023-03-16T23:30:25.881Z,100619.09
2023-03-16T23:32:55.375Z,100619.06
2023-03-16T23:35:26.827Z,100611.19
2023-03-16T23:37:54.976Z,100611.19
2023-03-16T23:40:24.985Z,100614.66
2023-03-16T23:42:56.048Z,100605.03
2023-03-16T23:45:25.246Z,100605.91
2023-03-16T23:47:55.957Z,100598.91
2023-03-16T23:50:28.456Z,100600.66
2023-03-16T23:52:56.244Z,100599.78
2023-03-16T23:55:24.759Z,100605.91
2023-03-16T23:57:51.966Z,100608.53
